Time;durP1;ratioP1;P1;durP2;ratioP2;P2;SDS_P1;SDS_P2;PMS_P1;PMS_P2;Temp;Humidity;BMP_temperature;BMP_pressure;BME280_temperature;BME280_humidity;BME280_pressure;Samples;Min_cycle;Max_cycle;Signal;HPM_P1;HPM_P2
2021/05/06 00:31:23;;;;;;;3.52;1.98;;;13.40;99.90;;;;;;1757526;81;21692;-76
2021/05/06 00:33:30;;;;;;;3.33;1.10;;;13.30;99.90;;;;;;1751167;82;21177;-75
2021/05/06 00:35:58;;;;;;;2.00;1.32;;;13.30;99.90;;;;;;1750489;82;21620;-75
2021/05/06 00:38:29;;;;;;;3.27;1.40;;;13.30;99.90;;;;;;1750370;82;21285;-76
2021/05/06 00:46:50;;;;;;;2.17;1.00;;;13.20;99.90;;;;;;1750548;82;21151;-76
2021/05/06 01:13:05;;;;;;;1.30;0.80;;;12.60;99.90;;;;;;1750545;82;21538;-76
2021/05/06 01:15:33;;;;;;;2.25;0.80;;;12.60;99.90;;;;;;1750379;82;21300;-75
2021/05/06 01:18:19;;;;;;;2.37;0.87;;;12.60;97.90;;;;;;1750882;82;21167;-76
2021/05/06 01:20:51;;;;;;;1.02;0.70;;;12.60;97.30;;;;;;1750283;82;21300;-76
2021/05/06 01:23:19;;;;;;;2.05;0.80;;;12.50;98.40;;;;;;1750536;82;21143;-76
2021/05/06 01:25:54;;;;;;;2.20;1.00;;;12.50;96.50;;;;;;1750521;82;21174;-76
2021/05/06 01:28:19;;;;;;;2.10;1.00;;;12.40;95.60;;;;;;1749716;82;21738;-76
2021/05/06 01:31:02;;;;;;;1.72;0.70;;;12.40;97.20;;;;;;1753286;81;21166;-76
2021/05/06 01:33:37;;;;;;;1.32;0.88;;;12.30;94.90;;;;;;1763177;81;21157;-76
2021/05/06 01:36:02;;;;;;;2.90;0.93;;;12.20;95.30;;;;;;1762964;81;21154;-75
2021/05/06 01:41:35;;;;;;;1.90;0.85;;;11.90;95.70;;;;;;1764105;81;21146;-76
2021/05/06 02:00:23;;;;;;;3.02;1.05;;;11.30;96.70;;;;;;1763977;81;21115;-75
2021/05/06 02:02:52;;;;;;;2.10;1.10;;;11.30;96.30;;;;;;1763931;81;21158;-75
2021/05/06 02:05:22;;;;;;;4.72;1.10;;;11.30;96.70;;;;;;1763754;81;21146;-76
2021/05/06 02:07:51;;;;;;;1.45;0.80;;;11.30;96.10;;;;;;1764214;81;21161;-77
2021/05/06 02:10:25;;;;;;;2.50;0.90;;;11.30;95.20;;;;;;1763835;81;21174;-75
2021/05/06 02:12:57;;;;;;;3.17;1.10;;;11.30;94.90;;;;;;1763989;81;21177;-76
2021/05/06 02:15:29;;;;;;;3.20;1.07;;;11.40;95.00;;;;;;1764301;80;21161;-76
2021/05/06 02:17:56;;;;;;;1.30;0.80;;;11.40;94.30;;;;;;1763839;81;21146;-76
2021/05/06 02:20:25;;;;;;;3.02;0.90;;;11.40;93.40;;;;;;1764550;81;21300;-76
2021/05/06 02:22:54;;;;;;;5.75;0.98;;;11.30;94.00;;;;;;1764096;80;21146;-74
2021/05/06 02:25:22;;;;;;;1.20;0.82;;;11.20;93.80;;;;;;1764132;81;21153;-75
2021/05/06 02:27:50;;;;;;;1.72;0.95;;;11.20;94.70;;;;;;1764027;81;21153;-75
2021/05/06 02:30:18;;;;;;;2.80;0.80;;;11.10;94.70;;;;;;1764050;81;21202;-74
2021/05/06 02:32:46;;;;;;;3.10;1.00;;;11.20;94.00;;;;;;1725368;81;21141;-75
2021/05/06 02:35:15;;;;;;;2.10;0.98;;;11.20;93.20;;;;;;1722655;83;21333;-74
2021/05/06 02:37:43;;;;;;;2.12;1.12;;;11.10;92.50;;;;;;1722380;83;21580;-74
2021/05/06 02:40:12;;;;;;;2.15;0.90;;;11.10;92.30;;;;;;1722407;83;21165;-75
2021/05/06 02:42:40;;;;;;;2.20;1.00;;;11.10;91.80;;;;;;1722328;83;21579;-75
2021/05/06 02:45:10;;;;;;;2.98;0.90;;;11.10;93.00;;;;;;1722508;83;21587;-75
2021/05/06 02:47:38;;;;;;;3.33;0.90;;;11.00;92.40;;;;;;1722517;83;21153;-75
2021/05/06 02:50:12;;;;;;;2.90;0.80;;;11.00;92.30;;;;;;1722317;83;21172;-75
2021/05/06 02:52:42;;;;;;;1.27;0.70;;;10.90;93.00;;;;;;1722218;83;21152;-75
2021/05/06 02:57:40;;;;;;;2.72;0.90;;;11.00;92.80;;;;;;1722335;83;21165;-75
2021/05/06 03:02:58;;;;;;;2.92;0.75;;;11.10;93.90;;;;;;1722308;83;21165;-74
2021/05/06 03:05:29;;;;;;;3.42;0.98;;;11.10;94.90;;;;;;1722603;83;21157;-75
2021/05/06 03:08:11;;;;;;;3.35;1.32;;;11.00;92.50;;;;;;1722644;83;21549;-74
2021/05/06 03:24:32;;;;;;;4.00;0.90;;;11.10;94.00;;;;;;1722729;83;21142;-73
2021/05/06 03:27:01;;;;;;;1.72;0.80;;;10.90;92.60;;;;;;1723178;83;21292;-73
2021/05/06 03:29:36;;;;;;;2.42;0.90;;;10.90;93.10;;;;;;1722701;83;21307;-75
2021/05/06 03:35:04;;;;;;;1.82;1.00;;;10.90;93.70;;;;;;1750621;82;21248;-74
2021/05/06 03:43:16;;;;;;;5.10;1.07;;;10.80;92.80;;;;;;1750199;82;21140;-74
2021/05/06 03:46:02;;;;;;;1.67;0.70;;;10.80;93.70;;;;;;1745085;82;21179;-74
2021/05/06 04:03:22;;;;;;;1.42;0.88;;;10.60;94.00;;;;;;1750543;82;21147;-74
2021/05/06 04:15:47;;;;;;;2.15;1.10;;;11.00;93.30;;;;;;1750343;82;21289;-74
2021/05/06 04:18:15;;;;;;;2.90;1.20;;;11.00;92.00;;;;;;1747826;82;21724;-74
2021/05/06 04:26:06;;;;;;;2.37;1.10;;;10.90;91.50;;;;;;1750384;82;21158;-74
2021/05/06 04:36:31;;;;;;;3.75;1.30;;;11.00;92.10;;;;;;1750723;82;21155;-74
2021/05/06 04:38:48;;;;;;;1.95;1.02;;;10.90;91.30;;;;;;1748792;82;21150;-74
2021/05/06 04:55:24;;;;;;;2.67;1.10;;;11.50;90.80;;;;;;1724958;83;21937;-75
2021/05/06 05:03:53;;;;;;;3.15;1.00;;;11.70;89.50;;;;;;1750734;82;21150;-74
2021/05/06 05:05:35;;;;;;;4.37;0.98;;;11.70;86.60;;;;;;1742926;82;21281;-75
2021/05/06 05:08:09;;;;;;;2.58;1.42;;;11.70;86.40;;;;;;1750324;82;21733;-75
2021/05/06 05:13:18;;;;;;;3.00;1.02;;;11.80;86.60;;;;;;1750543;82;21146;-75
2021/05/06 05:23:51;;;;;;;1.42;0.80;;;11.90;82.50;;;;;;1750487;82;21289;-75
2021/05/06 05:26:15;;;;;;;2.17;0.70;;;11.90;84.20;;;;;;1749905;82;21156;-75
2021/05/06 05:28:43;;;;;;;3.00;0.93;;;12.00;82.30;;;;;;1750324;82;21147;-75
2021/05/06 05:31:11;;;;;;;4.75;1.67;;;12.00;82.70;;;;;;1750399;82;21289;-75
2021/05/06 05:33:56;;;;;;;2.98;0.90;;;12.10;81.60;;;;;;1724712;82;21583;-75
2021/05/06 05:36:22;;;;;;;3.80;1.20;;;12.20;82.40;;;;;;1721878;83;21157;-75
2021/05/06 05:39:08;;;;;;;3.92;1.00;;;11.90;80.60;;;;;;1722516;83;21579;-76
2021/05/06 05:44:35;;;;;;;1.70;1.00;;;12.00;84.00;;;;;;1722470;83;21156;-76
2021/05/06 05:46:58;;;;;;;3.50;1.20;;;12.00;83.50;;;;;;1718603;83;21153;-76
2021/05/06 05:54:47;;;;;;;5.40;1.10;;;12.10;83.80;;;;;;1722435;83;20196;-75
2021/05/06 05:57:15;;;;;;;2.37;1.10;;;12.00;83.90;;;;;;1722560;83;21160;-75
2021/05/06 05:59:43;;;;;;;3.65;1.20;;;12.00;82.60;;;;;;1722432;83;21587;-75
2021/05/06 06:02:11;;;;;;;5.55;1.30;;;12.10;83.70;;;;;;1722330;83;21156;-76
2021/05/06 06:04:39;;;;;;;3.22;1.10;;;12.20;82.80;;;;;;1694092;83;21178;-76
2021/05/06 06:07:06;;;;;;;2.27;1.00;;;12.30;81.00;;;;;;1721990;83;21595;-76
2021/05/06 06:09:34;;;;;;;3.30;1.52;;;12.30;80.60;;;;;;1722103;83;21201;-76
2021/05/06 06:12:02;;;;;;;3.40;1.27;;;12.30;80.00;;;;;;1722286;83;21137;-76
2021/05/06 06:15:39;;;;;;;2.33;1.35;;;12.30;80.20;;;;;;1722177;83;21582;-76
2021/05/06 06:17:10;;;;;;;2.42;0.88;;;12.20;79.10;;;;;;1710717;83;21141;-76
2021/05/06 06:19:41;;;;;;;1.95;0.90;;;12.30;78.40;;;;;;1722736;83;21198;-76
2021/05/06 06:22:10;;;;;;;3.40;1.25;;;12.20;79.70;;;;;;1722341;83;21559;-75
2021/05/06 06:24:38;;;;;;;3.98;1.20;;;12.30;79.30;;;;;;1722359;83;21164;-76
2021/05/06 06:27:06;;;;;;;3.10;1.02;;;12.40;79.80;;;;;;1722327;83;21149;-76
2021/05/06 06:29:35;;;;;;;1.85;0.90;;;12.40;79.30;;;;;;1722479;83;21525;-76
2021/05/06 06:32:05;;;;;;;1.45;0.78;;;12.50;77.70;;;;;;1726564;82;21143;-76
2021/05/06 06:34:33;;;;;;;3.95;1.32;;;12.50;75.70;;;;;;1750470;82;21111;-76
2021/05/06 06:37:01;;;;;;;3.25;1.40;;;12.50;75.70;;;;;;1750400;82;21739;-77
2021/05/06 06:39:29;;;;;;;1.65;1.00;;;12.50;76.10;;;;;;1750108;82;21296;-76
2021/05/06 06:41:57;;;;;;;2.92;1.00;;;12.50;75.10;;;;;;1750626;82;21582;-76
2021/05/06 06:44:28;;;;;;;2.22;1.00;;;12.60;74.60;;;;;;1750593;82;21522;-76
2021/05/06 06:47:03;;;;;;;2.05;0.95;;;12.70;74.10;;;;;;1750552;82;21158;-76
2021/05/06 06:49:40;;;;;;;2.47;1.02;;;12.70;73.90;;;;;;1750553;82;21142;-76
2021/05/06 06:52:11;;;;;;;1.77;1.20;;;12.90;74.20;;;;;;1750624;82;21154;-75
2021/05/06 06:54:40;;;;;;;2.45;0.90;;;13.00;71.90;;;;;;1750697;82;21162;-76
2021/05/06 06:57:08;;;;;;;2.65;0.90;;;13.00;69.90;;;;;;1750574;82;21162;-77
2021/05/06 06:59:37;;;;;;;3.65;1.02;;;13.00;68.20;;;;;;1750616;82;21151;-77
2021/05/06 07:02:04;;;;;;;8.48;1.02;;;13.10;69.30;;;;;;1750409;82;21315;-76
2021/05/06 07:04:32;;;;;;;1.90;1.00;;;13.10;68.30;;;;;;1750608;82;21173;-76
2021/05/06 07:07:00;;;;;;;1.30;0.68;;;13.20;64.40;;;;;;1750399;82;21146;-76
2021/05/06 07:09:28;;;;;;;5.20;1.00;;;13.30;60.90;;;;;;1750407;82;21601;-75
2021/05/06 07:11:56;;;;;;;2.05;0.95;;;13.20;59.20;;;;;;1750242;82;21174;-76
2021/05/06 07:14:24;;;;;;;2.55;0.90;;;13.30;59.40;;;;;;1750398;82;21183;-76
2021/05/06 07:16:53;;;;;;;6.30;0.93;;;13.30;58.90;;;;;;1748515;82;21183;-76
2021/05/06 07:19:21;;;;;;;2.65;0.82;;;13.40;60.00;;;;;;1750610;82;21577;-76
2021/05/06 07:21:49;;;;;;;1.98;0.82;;;13.40;59.10;;;;;;1750630;82;21162;-76
2021/05/06 07:24:17;;;;;;;1.35;0.70;;;13.50;58.90;;;;;;1750419;82;21167;-76
2021/05/06 07:26:47;;;;;;;1.60;0.80;;;13.50;59.30;;;;;;1750233;82;21236;-76
2021/05/06 07:29:20;;;;;;;3.33;0.88;;;13.60;59.50;;;;;;1750677;82;21162;-76
2021/05/06 07:31:50;;;;;;;3.77;0.90;;;13.80;60.10;;;;;;1750438;82;21163;-76
2021/05/06 07:34:20;;;;;;;2.87;0.90;;;13.90;59.60;;;;;;1723480;82;21165;-76
2021/05/06 07:36:49;;;;;;;2.65;0.98;;;14.10;60.30;;;;;;1722407;83;21161;-76
2021/05/06 07:39:18;;;;;;;2.95;0.90;;;14.20;59.40;;;;;;1722415;83;21153;-76
2021/05/06 07:41:48;;;;;;;3.55;0.90;;;14.30;58.10;;;;;;1722428;83;21201;-76
2021/05/06 07:44:18;;;;;;;1.30;0.70;;;14.50;57.30;;;;;;1722435;83;21157;-76
2021/05/06 07:46:47;;;;;;;1.02;0.70;;;14.60;57.80;;;;;;1722243;83;21164;-76
2021/05/06 07:49:17;;;;;;;1.50;0.70;;;14.80;55.20;;;;;;1721721;83;21110;-77
2021/05/06 07:51:46;;;;;;;1.35;0.80;;;15.00;54.50;;;;;;1722823;83;21157;-76
2021/05/06 07:54:16;;;;;;;1.95;0.70;;;14.90;53.90;;;;;;1722485;83;21184;-76
2021/05/06 07:56:46;;;;;;;1.45;0.70;;;14.90;53.90;;;;;;1722358;83;21149;-76
2021/05/06 07:59:14;;;;;;;1.30;0.80;;;15.00;54.50;;;;;;1722684;83;21287;-76
2021/05/06 08:01:42;;;;;;;4.03;1.10;;;15.10;53.70;;;;;;1722496;83;21185;-76
2021/05/06 08:04:10;;;;;;;4.87;1.05;;;15.30;52.60;;;;;;1722398;83;21275;-76
2021/05/06 08:06:38;;;;;;;1.47;0.85;;;15.60;52.60;;;;;;1722660;83;21181;-76
2021/05/06 08:09:10;;;;;;;5.72;0.70;;;15.80;51.60;;;;;;1722465;83;21149;-75
2021/05/06 08:11:48;;;;;;;2.67;1.00;;;16.10;50.10;;;;;;1722406;83;21591;-76
2021/05/06 08:14:23;;;;;;;2.17;1.10;;;16.40;49.90;;;;;;1722673;83;21287;-76
2021/05/06 08:16:59;;;;;;;3.98;0.80;;;16.80;48.30;;;;;;1722329;83;21157;-77
2021/05/06 08:19:27;;;;;;;5.22;1.35;;;17.20;46.70;;;;;;1722188;83;21125;-76
2021/05/06 08:21:54;;;;;;;2.17;0.70;;;17.80;48.30;;;;;;1722576;83;21700;-76
2021/05/06 08:24:22;;;;;;;1.75;0.75;;;18.40;44.80;;;;;;1722399;83;21145;-76
2021/05/06 08:26:50;;;;;;;1.72;0.80;;;18.90;45.70;;;;;;1722662;83;21283;-76
2021/05/06 08:29:17;;;;;;;3.80;1.00;;;19.20;42.90;;;;;;1722502;83;21611;-77
2021/05/06 08:31:45;;;;;;;2.70;1.30;;;19.10;43.00;;;;;;1722380;83;21137;-76
2021/05/06 08:34:12;;;;;;;1.87;0.70;;;19.00;42.10;;;;;;1722368;81;21184;-77
2021/05/06 08:36:40;;;;;;;1.47;0.80;;;19.00;42.00;;;;;;1722766;83;21275;-76
2021/05/06 08:39:08;;;;;;;2.70;0.80;;;18.70;41.20;;;;;;1722374;83;21173;-76
2021/05/06 08:41:36;;;;;;;2.75;1.20;;;18.60;42.30;;;;;;1722372;83;21141;-76
2021/05/06 08:44:06;;;;;;;1.82;0.85;;;18.40;41.80;;;;;;1722379;83;21177;-76
2021/05/06 08:46:37;;;;;;;2.87;0.80;;;18.20;42.50;;;;;;1722918;83;21283;-77
2021/05/06 08:49:08;;;;;;;1.57;0.90;;;18.00;43.60;;;;;;1722475;83;21144;-77
2021/05/06 08:51:38;;;;;;;3.00;1.02;;;17.80;42.40;;;;;;1722425;83;21583;-76
2021/05/06 08:54:05;;;;;;;1.35;0.80;;;17.70;42.30;;;;;;1722552;83;21566;-76
2021/05/06 08:56:33;;;;;;;2.17;0.78;;;17.60;43.00;;;;;;1722519;83;21583;-77
2021/05/06 08:59:01;;;;;;;2.60;1.02;;;17.40;42.70;;;;;;1722346;83;21590;-76
2021/05/06 09:01:28;;;;;;;1.72;0.88;;;17.30;43.80;;;;;;1722367;83;21148;-76
2021/05/06 09:03:56;;;;;;;3.22;0.80;;;17.30;44.10;;;;;;1722525;83;21152;-76
2021/05/06 09:06:24;;;;;;;1.87;0.90;;;17.30;46.10;;;;;;1722432;83;21556;-76
2021/05/06 09:08:57;;;;;;;1.57;0.70;;;17.20;45.30;;;;;;1722525;83;21157;-76
2021/05/06 09:11:32;;;;;;;5.75;1.25;;;17.10;44.60;;;;;;1722463;83;21149;-76
2021/05/06 09:14:07;;;;;;;3.60;1.07;;;17.10;44.00;;;;;;1722819;83;21670;-76
2021/05/06 09:16:43;;;;;;;2.77;0.90;;;17.10;46.20;;;;;;1722342;83;21140;-77
2021/05/06 09:19:19;;;;;;;3.42;1.50;;;17.40;46.60;;;;;;1722537;83;21135;-76
2021/05/06 09:21:47;;;;;;;2.03;0.90;;;17.70;45.60;;;;;;1722797;83;21149;-76
2021/05/06 09:24:27;;;;;;;2.25;1.00;;;17.90;43.80;;;;;;1722620;83;21299;-77
2021/05/06 09:26:58;;;;;;;4.00;1.00;;;18.10;42.50;;;;;;1722386;83;21153;-76
2021/05/06 09:29:35;;;;;;;1.37;1.12;;;18.00;40.80;;;;;;1722060;83;21133;-76
2021/05/06 09:32:20;;;;;;;2.15;1.10;;;18.10;42.50;;;;;;1722786;83;21702;-76
2021/05/06 09:34:54;;;;;;;3.05;0.93;;;17.90;41.00;;;;;;1748478;81;21292;-76
2021/05/06 09:37:29;;;;;;;2.25;1.00;;;17.80;41.40;;;;;;1750289;82;21367;-76
2021/05/06 09:40:01;;;;;;;2.52;1.00;;;17.90;43.70;;;;;;1750496;82;21538;-76
2021/05/06 09:42:49;;;;;;;2.33;1.00;;;17.90;41.70;;;;;;1750065;82;21142;-77
2021/05/06 09:45:26;;;;;;;1.42;1.00;;;17.90;42.40;;;;;;1750308;82;21289;-76
2021/05/06 09:48:15;;;;;;;4.17;1.10;;;18.00;42.60;;;;;;1750260;82;21282;-77
2021/05/06 09:50:48;;;;;;;2.42;1.05;;;18.10;43.30;;;;;;1750490;82;21603;-76
2021/05/06 09:53:21;;;;;;;1.80;1.10;;;18.10;42.20;;;;;;1750107;82;21296;-76
2021/05/06 09:55:50;;;;;;;2.17;1.10;;;18.20;42.40;;;;;;1750327;82;21264;-77
2021/05/06 09:58:22;;;;;;;1.75;0.98;;;18.30;42.20;;;;;;1750472;82;21158;-77
2021/05/06 10:00:53;;;;;;;1.52;1.00;;;18.20;39.50;;;;;;1750375;82;21171;-77
2021/05/06 10:03:34;;;;;;;3.33;1.22;;;18.30;42.40;;;;;;1750268;82;21292;-77
2021/05/06 10:06:16;;;;;;;3.72;1.07;;;18.20;41.50;;;;;;1750549;82;21151;-76
2021/05/06 10:08:43;;;;;;;3.20;1.07;;;18.20;41.50;;;;;;1744997;82;21194;-77
2021/05/06 10:11:21;;;;;;;1.10;0.80;;;18.30;40.40;;;;;;1750353;82;21123;-76
2021/05/06 10:13:50;;;;;;;2.58;1.10;;;18.20;40.00;;;;;;1750267;82;21764;-77
2021/05/06 10:16:18;;;;;;;3.33;1.20;;;18.20;39.40;;;;;;1750246;82;21177;-77
2021/05/06 10:18:46;;;;;;;1.40;0.90;;;18.20;39.70;;;;;;1750723;82;21545;-77
2021/05/06 10:21:17;;;;;;;1.50;0.80;;;18.30;40.90;;;;;;1750624;82;21172;-77
2021/05/06 10:23:49;;;;;;;3.37;1.00;;;18.30;40.90;;;;;;1750535;82;21150;-77
2021/05/06 10:26:19;;;;;;;2.35;1.02;;;18.30;40.60;;;;;;1750474;82;21127;-76
2021/05/06 10:28:51;;;;;;;1.85;1.00;;;18.30;40.90;;;;;;1750465;82;21668;-76
2021/05/06 10:31:20;;;;;;;1.27;0.85;;;18.30;40.60;;;;;;1750481;82;21154;-76
2021/05/06 10:33:47;;;;;;;3.90;1.00;;;18.30;40.40;;;;;;1755071;81;21715;-76
2021/05/06 10:36:17;;;;;;;3.42;1.00;;;18.20;40.60;;;;;;1764168;81;21157;-75
2021/05/06 10:38:45;;;;;;;2.05;1.07;;;18.10;40.30;;;;;;1764358;81;21157;-76
2021/05/06 10:41:29;;;;;;;3.15;1.10;;;18.00;40.80;;;;;;1764075;81;21171;-76
2021/05/06 10:44:01;;;;;;;1.92;1.00;;;17.90;40.70;;;;;;1763892;81;21135;-76
2021/05/06 10:47:01;;;;;;;1.80;1.00;;;17.90;40.80;;;;;;1763940;81;21174;-75
2021/05/06 10:49:32;;;;;;;2.98;0.93;;;17.80;40.60;;;;;;1763773;81;21166;-76
2021/05/06 10:52:05;;;;;;;1.32;0.80;;;17.70;43.90;;;;;;1719247;81;21177;-76
2021/05/06 10:54:42;;;;;;;6.03;1.30;;;17.80;43.10;;;;;;1764233;81;21146;-76
2021/05/06 10:57:19;;;;;;;5.40;1.20;;;17.70;41.30;;;;;;1763477;81;21154;-76
2021/05/06 10:59:50;;;;;;;2.83;1.27;;;17.80;42.50;;;;;;1764041;81;21142;-75
2021/05/06 11:02:46;;;;;;;2.33;1.20;;;17.80;42.30;;;;;;1763998;81;21141;-76
2021/05/06 11:05:23;;;;;;;2.30;1.05;;;17.80;43.20;;;;;;1764133;81;21150;-76
2021/05/06 11:08:09;;;;;;;3.35;1.52;;;17.80;42.90;;;;;;1763903;81;21147;-76
2021/05/06 11:10:51;;;;;;;3.92;1.40;;;17.90;44.10;;;;;;1764099;81;21158;-75
2021/05/06 11:13:22;;;;;;;2.33;1.10;;;18.00;42.60;;;;;;1763922;81;21137;-76
2021/05/06 11:15:51;;;;;;;4.58;1.50;;;18.00;42.50;;;;;;1764051;81;21166;-76
2021/05/06 11:18:43;;;;;;;2.52;1.32;;;18.10;43.40;;;;;;1764275;81;21163;-76
2021/05/06 11:21:34;;;;;;;2.75;1.00;;;18.20;42.80;;;;;;1763951;81;21584;-75
2021/05/06 11:24:26;;;;;;;2.70;1.10;;;18.20;42.00;;;;;;1764042;81;21151;-76
2021/05/06 11:27:10;;;;;;;2.10;1.20;;;18.20;41.40;;;;;;1761198;81;21162;-76
2021/05/06 11:29:42;;;;;;;1.95;1.35;;;18.10;42.60;;;;;;1763835;81;21118;-76
2021/05/06 11:32:35;;;;;;;1.70;1.30;;;18.10;42.10;;;;;;1764141;81;21585;-76
2021/05/06 11:35:04;;;;;;;2.70;1.20;;;18.10;42.50;;;;;;1753402;81;21162;-76
2021/05/06 11:37:33;;;;;;;1.62;1.12;;;18.10;42.30;;;;;;1750540;82;21155;-78
2021/05/06 11:40:08;;;;;;;1.92;1.25;;;18.20;42.30;;;;;;1750821;82;21163;-76
2021/05/06 11:42:38;;;;;;;1.45;1.00;;;18.30;42.10;;;;;;1750704;82;21170;-76
2021/05/06 11:45:27;;;;;;;1.65;1.00;;;18.40;42.20;;;;;;1750447;82;21565;-76
2021/05/06 11:47:54;;;;;;;3.07;1.20;;;18.40;39.80;;;;;;1750238;82;21173;-77
2021/05/06 11:50:33;;;;;;;5.87;1.47;;;18.40;40.60;;;;;;1750554;82;22389;-77
2021/05/06 11:53:03;;;;;;;5.75;1.57;;;18.50;41.00;;;;;;1750388;82;21147;-77
2021/05/06 11:55:35;;;;;;;3.98;1.20;;;18.50;40.00;;;;;;1750622;82;21151;-76
2021/05/06 11:58:04;;;;;;;1.67;0.82;;;18.60;40.70;;;;;;1750892;82;21146;-77
2021/05/06 12:00:34;;;;;;;2.22;1.12;;;18.50;38.80;;;;;;1750411;82;21584;-76
2021/05/06 12:03:09;;;;;;;1.70;0.82;;;18.50;38.70;;;;;;1750418;82;21592;-76
2021/05/06 12:05:57;;;;;;;1.62;0.90;;;18.40;38.90;;;;;;1750685;82;21146;-75
2021/05/06 12:08:46;;;;;;;1.77;1.15;;;18.40;38.20;;;;;;1778053;79;22634;-76
2021/05/06 12:11:15;;;;;;;1.22;0.85;;;18.30;39.80;;;;;;1788390;80;21102;-75
2021/05/06 12:13:44;;;;;;;2.17;1.30;;;18.30;39.00;;;;;;1788518;80;21148;-76
2021/05/06 12:16:21;;;;;;;2.87;0.95;;;18.20;39.70;;;;;;1788620;80;21137;-76
2021/05/06 12:19:09;;;;;;;1.72;0.80;;;18.10;37.90;;;;;;1788564;80;21106;-77
2021/05/06 12:21:53;;;;;;;4.30;1.12;;;18.10;40.10;;;;;;1788400;80;21149;-75
2021/05/06 12:24:49;;;;;;;2.58;1.00;;;18.30;40.60;;;;;;1788543;80;21579;-76
2021/05/06 12:27:22;;;;;;;1.92;1.10;;;18.40;41.00;;;;;;1787969;80;21161;-76
2021/05/06 12:30:01;;;;;;;2.02;1.10;;;18.40;40.60;;;;;;1788432;80;21134;-76
2021/05/06 12:32:33;;;;;;;2.77;0.95;;;18.40;39.30;;;;;;1788274;80;21152;-77
2021/05/06 12:35:03;;;;;;;1.55;0.80;;;18.30;39.40;;;;;;1788685;80;21556;-76
2021/05/06 12:37:33;;;;;;;2.47;1.10;;;18.30;39.50;;;;;;1788483;80;21165;-77
2021/05/06 12:40:04;;;;;;;2.35;0.80;;;18.20;39.40;;;;;;1788636;80;21118;-77
2021/05/06 12:42:35;;;;;;;2.30;0.80;;;18.10;39.40;;;;;;1788704;80;21145;-77
2021/05/06 12:45:07;;;;;;;2.22;0.90;;;18.10;39.30;;;;;;1788402;80;21107;-75
2021/05/06 12:47:44;;;;;;;2.00;0.90;;;18.00;39.90;;;;;;1787875;80;21600;-76
2021/05/06 12:50:22;;;;;;;2.87;1.30;;;18.00;41.00;;;;;;1788427;80;21141;-77
2021/05/06 12:52:53;;;;;;;2.67;1.00;;;17.90;40.00;;;;;;1788230;80;21929;-76
2021/05/06 12:55:31;;;;;;;2.67;0.88;;;17.90;39.90;;;;;;1788631;80;21196;-76
2021/05/06 12:58:17;;;;;;;1.30;0.78;;;17.90;40.10;;;;;;1788446;80;21138;-76
2021/05/06 13:00:55;;;;;;;1.62;0.82;;;17.90;42.40;;;;;;1788760;80;21562;-77
2021/05/06 13:03:35;;;;;;;4.97;1.00;;;17.90;41.10;;;;;;1788381;80;21576;-76
2021/05/06 13:06:07;;;;;;;2.20;1.10;;;17.80;40.80;;;;;;1788555;80;21150;-77
2021/05/06 13:08:47;;;;;;;2.45;1.10;;;17.80;41.40;;;;;;1793746;80;21123;-76
2021/05/06 13:11:21;;;;;;;2.50;0.88;;;17.70;39.40;;;;;;1794546;80;21114;-76
2021/05/06 13:13:51;;;;;;;2.27;1.00;;;17.70;41.30;;;;;;1794291;80;21129;-76
2021/05/06 13:16:42;;;;;;;2.02;0.90;;;17.70;40.50;;;;;;1794434;80;21173;-76
2021/05/06 13:19:14;;;;;;;2.52;0.90;;;17.70;40.10;;;;;;1794040;80;21559;-77
2021/05/06 13:21:56;;;;;;;3.05;1.30;;;17.60;42.10;;;;;;1794330;80;21286;-76
2021/05/06 13:24:45;;;;;;;2.40;0.98;;;17.60;41.50;;;;;;1793871;80;21603;-77
2021/05/06 13:27:15;;;;;;;1.90;0.82;;;17.70;41.30;;;;;;1793761;80;21745;-75
2021/05/06 13:29:50;;;;;;;5.22;1.20;;;17.60;39.70;;;;;;1793737;80;21132;-75
2021/05/06 13:32:37;;;;;;;2.80;1.10;;;17.60;41.10;;;;;;1833391;76;28515;-76
2021/05/06 13:35:15;;;;;;;1.77;1.00;;;17.50;41.40;;;;;;1860720;77;21085;-76
2021/05/06 13:37:46;;;;;;;3.55;1.05;;;17.50;40.70;;;;;;1860398;77;21552;-76
2021/05/06 13:40:14;;;;;;;3.85;1.20;;;17.50;41.20;;;;;;1860453;77;21271;-77
2021/05/06 13:42:42;;;;;;;1.22;0.85;;;17.40;41.40;;;;;;1860488;77;21149;-76
2021/05/06 13:45:11;;;;;;;2.30;0.80;;;17.40;42.30;;;;;;1860442;77;21258;-76
2021/05/06 13:47:39;;;;;;;0.95;0.70;;;17.40;41.20;;;;;;1861037;77;21128;-76
2021/05/06 13:50:09;;;;;;;1.50;0.95;;;17.30;41.50;;;;;;1860447;77;21094;-76
2021/05/06 13:52:37;;;;;;;2.10;0.98;;;17.30;41.40;;;;;;1860276;77;21125;-75
2021/05/06 13:55:05;;;;;;;3.27;0.90;;;17.30;41.20;;;;;;1860552;77;21278;-76
2021/05/06 13:57:33;;;;;;;2.52;1.10;;;17.20;40.90;;;;;;1860235;77;21260;-76
2021/05/06 14:00:01;;;;;;;2.62;0.80;;;17.30;41.90;;;;;;1860258;77;21105;-76
2021/05/06 14:02:31;;;;;;;4.45;1.87;;;17.20;40.80;;;;;;1858336;77;21117;-76
2021/05/06 14:04:59;;;;;;;3.70;1.40;;;17.30;40.70;;;;;;1860772;77;21125;-76
2021/05/06 14:07:27;;;;;;;4.35;1.10;;;17.20;41.30;;;;;;1860279;77;21263;-76
2021/05/06 14:09:55;;;;;;;3.67;1.00;;;17.20;42.20;;;;;;1860238;77;21311;-76
2021/05/06 14:12:23;;;;;;;3.15;0.90;;;17.20;40.20;;;;;;1860459;77;21657;-76
2021/05/06 14:14:52;;;;;;;2.80;0.90;;;17.10;40.20;;;;;;1860793;77;21687;-76
2021/05/06 14:17:20;;;;;;;2.35;0.85;;;17.00;40.60;;;;;;1860419;77;21153;-76
2021/05/06 14:19:47;;;;;;;2.85;0.80;;;16.90;40.70;;;;;;1860564;77;21231;-76
2021/05/06 14:22:15;;;;;;;1.80;0.80;;;16.80;40.90;;;;;;1860432;77;21682;-77
2021/05/06 14:24:44;;;;;;;3.15;0.80;;;16.70;40.10;;;;;;1860653;77;21120;-76
2021/05/06 14:27:12;;;;;;;3.17;0.98;;;16.70;42.10;;;;;;1860428;77;21165;-76
2021/05/06 14:29:40;;;;;;;2.12;0.70;;;16.70;41.80;;;;;;1860252;77;21295;-76
2021/05/06 14:32:10;;;;;;;1.45;0.65;;;16.80;41.10;;;;;;1851487;77;21702;-76
2021/05/06 14:34:38;;;;;;;3.12;0.62;;;16.70;40.60;;;;;;1848631;77;21268;-76
2021/05/06 14:37:06;;;;;;;1.72;0.80;;;16.70;42.20;;;;;;1848828;77;21556;-76
2021/05/06 14:39:33;;;;;;;3.92;1.20;;;16.70;41.70;;;;;;1848654;77;21279;-76
2021/05/06 14:42:01;;;;;;;5.45;0.90;;;16.70;41.40;;;;;;1848644;77;21118;-76
2021/05/06 14:44:29;;;;;;;4.47;1.00;;;16.80;42.00;;;;;;1848004;78;21125;-76
2021/05/06 14:46:56;;;;;;;2.50;0.80;;;16.90;42.60;;;;;;1848112;78;21129;-76
2021/05/06 14:49:25;;;;;;;1.32;0.72;;;16.90;42.60;;;;;;1848109;77;21117;-77
2021/05/06 14:51:53;;;;;;;2.90;1.20;;;16.90;42.90;;;;;;1848101;77;21144;-76
2021/05/06 14:54:20;;;;;;;3.30;1.17;;;16.90;42.40;;;;;;1847992;78;21102;-77
2021/05/06 14:56:48;;;;;;;2.37;1.22;;;16.90;44.30;;;;;;1848015;77;21134;-76
2021/05/06 14:59:15;;;;;;;2.12;1.10;;;16.90;42.90;;;;;;1848380;77;21138;-77
2021/05/06 15:01:43;;;;;;;3.47;1.07;;;16.90;42.60;;;;;;1848686;77;21283;-77
2021/05/06 15:04:11;;;;;;;1.42;0.90;;;17.00;43.00;;;;;;1847996;77;21144;-76
2021/05/06 15:06:39;;;;;;;1.85;0.98;;;17.00;43.50;;;;;;1848089;77;21579;-76
2021/05/06 15:09:07;;;;;;;1.90;0.80;;;17.00;42.30;;;;;;1848075;77;21591;-76
2021/05/06 15:11:35;;;;;;;1.67;0.90;;;17.00;42.80;;;;;;1847968;77;21133;-77
2021/05/06 15:14:04;;;;;;;2.27;1.20;;;17.00;42.90;;;;;;1848185;77;21121;-76
2021/05/06 15:16:31;;;;;;;3.25;1.20;;;17.00;42.90;;;;;;1847967;77;21145;-76
2021/05/06 15:18:59;;;;;;;3.02;1.20;;;16.90;43.50;;;;;;1848177;78;21153;-77
2021/05/06 15:21:28;;;;;;;3.72;1.12;;;16.90;43.60;;;;;;1848109;78;21124;-77
2021/05/06 15:23:56;;;;;;;2.17;1.30;;;16.90;44.00;;;;;;1848463;77;21286;-76
2021/05/06 15:26:24;;;;;;;1.65;0.95;;;16.80;43.70;;;;;;1847977;77;21141;-76
2021/05/06 15:28:52;;;;;;;2.25;0.90;;;16.80;42.80;;;;;;1848210;78;21584;-76
2021/05/06 15:31:20;;;;;;;1.65;0.80;;;16.80;43.70;;;;;;1848065;77;21114;-76
2021/05/06 15:33:48;;;;;;;2.62;1.07;;;16.80;44.50;;;;;;1848003;77;21543;-76
2021/05/06 15:36:18;;;;;;;2.83;1.02;;;16.80;43.90;;;;;;1848008;77;21125;-76
2021/05/06 15:38:45;;;;;;;2.17;0.90;;;16.80;42.50;;;;;;1848074;77;21094;-76
2021/05/06 15:41:13;;;;;;;2.40;0.98;;;16.70;42.50;;;;;;1848056;78;21142;-76
2021/05/06 15:43:41;;;;;;;3.15;1.20;;;16.70;43.10;;;;;;1848046;77;21137;-76
2021/05/06 15:46:11;;;;;;;4.65;1.05;;;16.60;43.00;;;;;;1847018;77;21203;-76
2021/05/06 15:48:39;;;;;;;2.00;1.10;;;16.50;43.30;;;;;;1847949;78;21136;-76
2021/05/06 15:51:07;;;;;;;2.52;0.90;;;16.40;44.80;;;;;;1848213;78;21223;-77
2021/05/06 15:53:35;;;;;;;2.25;0.88;;;16.40;44.40;;;;;;1847934;77;21098;-76
2021/05/06 15:56:05;;;;;;;1.82;0.80;;;16.40;44.40;;;;;;1848189;77;21118;-77
2021/05/06 15:58:34;;;;;;;2.25;0.80;;;16.40;44.30;;;;;;1848141;77;21528;-77
2021/05/06 16:01:03;;;;;;;3.55;1.00;;;16.40;44.20;;;;;;1848030;77;21595;-76
2021/05/06 16:03:35;;;;;;;2.22;1.00;;;16.30;44.20;;;;;;1847943;77;21109;-77
2021/05/06 16:06:03;;;;;;;2.83;0.90;;;16.30;44.20;;;;;;1848544;77;21578;-77
2021/05/06 16:08:30;;;;;;;3.72;1.00;;;16.30;44.80;;;;;;1848219;77;21148;-76
2021/05/06 16:10:58;;;;;;;2.85;0.98;;;16.30;44.50;;;;;;1847900;77;21161;-76
2021/05/06 16:13:26;;;;;;;1.98;1.20;;;16.30;45.40;;;;;;1847943;78;21121;-76